sensor_id;sensor_type;location;lat;lon;timestamp;P1;durP1;ratioP1;P2;durP2;ratioP2
45887;SDS011;31595;51.418;7.572;2024-01-15T00:00:15;29.15;;;18.85;;
45887;SDS011;31595;51.418;7.572;2024-01-15T00:02:42;24.40;;;17.00;;
45887;SDS011;31595;51.418;7.572;2024-01-15T00:05:09;26.73;;;17.33;;
45887;SDS011;31595;51.418;7.572;2024-01-15T00:07:36;24.70;;;17.52;;
45887;SDS011;31595;51.418;7.572;2024-01-15T00:10:04;25.55;;;16.85;;
45887;SDS011;31595;51.418;7.572;2024-01-15T00:12:31;25.63;;;17.40;;
45887;SDS011;31595;51.418;7.572;2024-01-15T00:14:58;27.38;;;18.27;;
45887;SDS011;31595;51.418;7.572;2024-01-15T00:17:25;27.50;;;18.02;;
45887;SDS011;31595;51.418;7.572;2024-01-15T00:19:52;29.35;;;19.25;;
45887;SDS011;31595;51.418;7.572;2024-01-15T00:22:19;27.50;;;19.15;;
45887;SDS011;31595;51.418;7.572;2024-01-15T00:24:46;25.73;;;18.25;;
45887;SDS011;31595;51.418;7.572;2024-01-15T00:27:14;28.63;;;20.70;;
45887;SDS011;31595;51.418;7.572;2024-01-15T00:29:41;31.63;;;21.00;;
45887;SDS011;31595;51.418;7.572;2024-01-15T00:32:08;27.75;;;18.98;;
45887;SDS011;31595;51.418;7.572;2024-01-15T00:34:35;30.98;;;19.50;;
45887;SDS011;31595;51.418;7.572;2024-01-15T00:37:01;30.63;;;20.92;;
45887;SDS011;31595;51.418;7.572;2024-01-15T00:39:29;29.23;;;19.67;;
45887;SDS011;31595;51.418;7.572;2024-01-15T00:41:56;33.50;;;21.13;;
45887;SDS011;31595;51.418;7.572;2024-01-15T00:44:24;33.65;;;21.52;;
45887;SDS011;31595;51.418;7.572;2024-01-15T00:46:51;31.98;;;21.88;;
45887;SDS011;31595;51.418;7.572;2024-01-15T00:49:18;28.35;;;20.13;;
45887;SDS011;31595;51.418;7.572;2024-01-15T00:51:45;32.38;;;21.65;;
45887;SDS011;31595;51.418;7.572;2024-01-15T00:54:11;31.75;;;21.00;;
45887;SDS011;31595;51.418;7.572;2024-01-15T00:56:38;34.33;;;22.42;;
45887;SDS011;31595;51.418;7.572;2024-01-15T00:59:05;31.50;;;20.80;;
45887;SDS011;31595;51.418;7.572;2024-01-15T01:01:34;30.08;;;20.10;;
45887;SDS011;31595;51.418;7.572;2024-01-15T01:04:01;31.00;;;20.40;;
45887;SDS011;31595;51.418;7.572;2024-01-15T01:06:28;27.10;;;18.80;;
45887;SDS011;31595;51.418;7.572;2024-01-15T01:08:55;30.02;;;20.38;;
45887;SDS011;31595;51.418;7.572;2024-01-15T01:11:21;30.45;;;20.17;;
45887;SDS011;31595;51.418;7.572;2024-01-15T01:13:48;28.10;;;19.55;;
45887;SDS011;31595;51.418;7.572;2024-01-15T01:16:15;29.45;;;20.33;;
45887;SDS011;31595;51.418;7.572;2024-01-15T01:18:43;26.85;;;19.23;;
45887;SDS011;31595;51.418;7.572;2024-01-15T01:21:10;27.48;;;19.30;;
45887;SDS011;31595;51.418;7.572;2024-01-15T01:23:37;31.48;;;20.63;;
45887;SDS011;31595;51.418;7.572;2024-01-15T01:26:04;28.08;;;19.90;;
45887;SDS011;31595;51.418;7.572;2024-01-15T01:28:31;28.40;;;19.83;;
45887;SDS011;31595;51.418;7.572;2024-01-15T01:30:57;28.83;;;18.95;;
45887;SDS011;31595;51.418;7.572;2024-01-15T01:33:24;29.95;;;19.33;;
45887;SDS011;31595;51.418;7.572;2024-01-15T01:35:52;28.95;;;19.38;;
45887;SDS011;31595;51.418;7.572;2024-01-15T01:38:19;26.73;;;17.55;;
45887;SDS011;31595;51.418;7.572;2024-01-15T01:40:46;27.95;;;19.27;;
45887;SDS011;31595;51.418;7.572;2024-01-15T01:43:13;28.40;;;20.52;;
45887;SDS011;31595;51.418;7.572;2024-01-15T01:45:39;33.28;;;21.10;;
45887;SDS011;31595;51.418;7.572;2024-01-15T01:48:06;31.75;;;20.17;;
45887;SDS011;31595;51.418;7.572;2024-01-15T01:50:33;30.98;;;20.85;;
45887;SDS011;31595;51.418;7.572;2024-01-15T01:53:02;31.45;;;20.88;;
45887;SDS011;31595;51.418;7.572;2024-01-15T01:55:30;31.42;;;20.38;;
45887;SDS011;31595;51.418;7.572;2024-01-15T01:57:58;30.38;;;18.90;;
45887;SDS011;31595;51.418;7.572;2024-01-15T02:00:26;27.83;;;18.77;;
45887;SDS011;31595;51.418;7.572;2024-01-15T02:02:52;26.55;;;18.83;;
45887;SDS011;31595;51.418;7.572;2024-01-15T02:05:20;30.02;;;19.48;;
45887;SDS011;31595;51.418;7.572;2024-01-15T02:07:47;29.27;;;19.25;;
45887;SDS011;31595;51.418;7.572;2024-01-15T02:10:15;28.80;;;18.50;;
45887;SDS011;31595;51.418;7.572;2024-01-15T02:12:42;28.83;;;18.35;;
45887;SDS011;31595;51.418;7.572;2024-01-15T02:15:09;29.42;;;18.77;;
45887;SDS011;31595;51.418;7.572;2024-01-15T02:17:46;29.90;;;19.70;;
45887;SDS011;31595;51.418;7.572;2024-01-15T02:20:22;28.40;;;19.13;;
45887;SDS011;31595;51.418;7.572;2024-01-15T02:22:49;29.10;;;19.60;;
45887;SDS011;31595;51.418;7.572;2024-01-15T02:25:17;28.55;;;18.70;;
45887;SDS011;31595;51.418;7.572;2024-01-15T02:27:44;28.02;;;18.95;;
45887;SDS011;31595;51.418;7.572;2024-01-15T02:30:11;29.08;;;18.70;;
45887;SDS011;31595;51.418;7.572;2024-01-15T02:32:38;29.40;;;17.77;;
45887;SDS011;31595;51.418;7.572;2024-01-15T02:35:05;28.73;;;18.08;;
45887;SDS011;31595;51.418;7.572;2024-01-15T02:37:32;29.65;;;19.10;;
45887;SDS011;31595;51.418;7.572;2024-01-15T02:39:59;27.45;;;18.58;;
45887;SDS011;31595;51.418;7.572;2024-01-15T02:42:27;28.92;;;18.00;;
45887;SDS011;31595;51.418;7.572;2024-01-15T02:44:54;25.63;;;16.98;;
45887;SDS011;31595;51.418;7.572;2024-01-15T02:47:20;26.83;;;18.45;;
45887;SDS011;31595;51.418;7.572;2024-01-15T02:49:47;28.15;;;17.63;;
45887;SDS011;31595;51.418;7.572;2024-01-15T02:52:14;28.77;;;19.05;;
45887;SDS011;31595;51.418;7.572;2024-01-15T02:54:41;27.33;;;18.13;;
45887;SDS011;31595;51.418;7.572;2024-01-15T02:57:08;30.30;;;18.52;;
45887;SDS011;31595;51.418;7.572;2024-01-15T02:59:36;29.60;;;17.85;;
45887;SDS011;31595;51.418;7.572;2024-01-15T03:02:03;23.80;;;16.52;;
45887;SDS011;31595;51.418;7.572;2024-01-15T03:04:29;28.90;;;18.27;;
45887;SDS011;31595;51.418;7.572;2024-01-15T03:06:56;29.73;;;17.58;;
45887;SDS011;31595;51.418;7.572;2024-01-15T03:09:23;28.70;;;17.55;;
45887;SDS011;31595;51.418;7.572;2024-01-15T03:11:50;28.08;;;17.35;;
45887;SDS011;31595;51.418;7.572;2024-01-15T03:14:17;28.30;;;17.10;;
45887;SDS011;31595;51.418;7.572;2024-01-15T03:16:45;27.73;;;16.13;;
45887;SDS011;31595;51.418;7.572;2024-01-15T03:19:11;26.10;;;17.05;;
45887;SDS011;31595;51.418;7.572;2024-01-15T03:21:38;27.48;;;16.85;;
45887;SDS011;31595;51.418;7.572;2024-01-15T03:24:05;25.75;;;16.38;;
45887;SDS011;31595;51.418;7.572;2024-01-15T03:26:32;26.90;;;16.73;;
45887;SDS011;31595;51.418;7.572;2024-01-15T03:28:59;30.40;;;16.38;;
45887;SDS011;31595;51.418;7.572;2024-01-15T03:31:25;32.70;;;17.25;;
45887;SDS011;31595;51.418;7.572;2024-01-15T03:33:54;26.33;;;16.95;;
45887;SDS011;31595;51.418;7.572;2024-01-15T03:36:20;27.67;;;16.42;;
45887;SDS011;31595;51.418;7.572;2024-01-15T03:38:47;26.73;;;16.73;;
45887;SDS011;31595;51.418;7.572;2024-01-15T03:41:14;26.73;;;16.73;;
45887;SDS011;31595;51.418;7.572;2024-01-15T03:43:41;27.40;;;16.65;;
45887;SDS011;31595;51.418;7.572;2024-01-15T03:46:07;24.70;;;16.90;;
45887;SDS011;31595;51.418;7.572;2024-01-15T03:48:34;24.33;;;15.77;;
45887;SDS011;31595;51.418;7.572;2024-01-15T03:51:03;23.67;;;15.50;;
45887;SDS011;31595;51.418;7.572;2024-01-15T03:53:30;26.50;;;16.50;;
45887;SDS011;31595;51.418;7.572;2024-01-15T03:55:57;25.92;;;15.50;;
45887;SDS011;31595;51.418;7.572;2024-01-15T03:58:23;23.83;;;14.68;;
45887;SDS011;31595;51.418;7.572;2024-01-15T04:00:50;22.10;;;14.02;;
45887;SDS011;31595;51.418;7.572;2024-01-15T04:03:17;23.27;;;15.05;;
45887;SDS011;31595;51.418;7.572;2024-01-15T04:05:44;27.38;;;15.52;;
45887;SDS011;31595;51.418;7.572;2024-01-15T04:08:12;22.90;;;13.55;;
45887;SDS011;31595;51.418;7.572;2024-01-15T04:10:39;23.02;;;14.07;;
45887;SDS011;31595;51.418;7.572;2024-01-15T04:13:06;22.70;;;14.15;;
45887;SDS011;31595;51.418;7.572;2024-01-15T04:15:32;21.95;;;14.02;;
45887;SDS011;31595;51.418;7.572;2024-01-15T04:18:00;20.08;;;13.07;;
45887;SDS011;31595;51.418;7.572;2024-01-15T04:20:27;19.67;;;13.32;;
45887;SDS011;31595;51.418;7.572;2024-01-15T04:22:54;26.40;;;13.35;;
45887;SDS011;31595;51.418;7.572;2024-01-15T04:25:22;20.23;;;13.55;;
45887;SDS011;31595;51.418;7.572;2024-01-15T04:27:49;21.23;;;13.30;;
45887;SDS011;31595;51.418;7.572;2024-01-15T04:30:16;20.83;;;12.30;;
45887;SDS011;31595;51.418;7.572;2024-01-15T04:32:43;18.10;;;11.98;;
45887;SDS011;31595;51.418;7.572;2024-01-15T04:35:09;23.48;;;13.30;;
45887;SDS011;31595;51.418;7.572;2024-01-15T04:37:38;17.02;;;11.10;;
45887;SDS011;31595;51.418;7.572;2024-01-15T04:40:05;19.92;;;12.50;;
45887;SDS011;31595;51.418;7.572;2024-01-15T04:42:34;20.02;;;12.18;;
45887;SDS011;31595;51.418;7.572;2024-01-15T04:45:01;19.65;;;11.68;;
45887;SDS011;31595;51.418;7.572;2024-01-15T04:47:29;18.33;;;11.25;;
45887;SDS011;31595;51.418;7.572;2024-01-15T04:49:55;18.70;;;11.23;;
45887;SDS011;31595;51.418;7.572;2024-01-15T04:52:22;17.50;;;11.50;;
45887;SDS011;31595;51.418;7.572;2024-01-15T04:54:49;17.38;;;10.98;;
45887;SDS011;31595;51.418;7.572;2024-01-15T04:57:16;22.02;;;12.07;;
45887;SDS011;31595;51.418;7.572;2024-01-15T04:59:44;21.92;;;11.93;;
45887;SDS011;31595;51.418;7.572;2024-01-15T05:02:11;20.23;;;12.43;;
45887;SDS011;31595;51.418;7.572;2024-01-15T05:04:38;23.63;;;11.88;;
45887;SDS011;31595;51.418;7.572;2024-01-15T05:07:05;19.92;;;10.85;;
45887;SDS011;31595;51.418;7.572;2024-01-15T05:09:32;20.83;;;11.05;;
45887;SDS011;31595;51.418;7.572;2024-01-15T05:11:59;19.20;;;11.25;;
45887;SDS011;31595;51.418;7.572;2024-01-15T05:14:26;16.95;;;10.52;;
45887;SDS011;31595;51.418;7.572;2024-01-15T05:16:54;17.98;;;10.90;;
45887;SDS011;31595;51.418;7.572;2024-01-15T05:19:21;16.95;;;11.15;;
45887;SDS011;31595;51.418;7.572;2024-01-15T05:21:48;18.92;;;11.32;;
45887;SDS011;31595;51.418;7.572;2024-01-15T05:24:14;20.10;;;11.60;;
45887;SDS011;31595;51.418;7.572;2024-01-15T05:26:41;18.73;;;12.10;;
45887;SDS011;31595;51.418;7.572;2024-01-15T05:29:08;19.88;;;11.88;;
45887;SDS011;31595;51.418;7.572;2024-01-15T05:31:35;20.92;;;11.95;;
45887;SDS011;31595;51.418;7.572;2024-01-15T05:34:03;16.08;;;10.77;;
45887;SDS011;31595;51.418;7.572;2024-01-15T05:36:30;20.52;;;10.77;;
45887;SDS011;31595;51.418;7.572;2024-01-15T05:38:57;17.48;;;11.30;;
45887;SDS011;31595;51.418;7.572;2024-01-15T05:41:24;21.85;;;11.75;;
45887;SDS011;31595;51.418;7.572;2024-01-15T05:43:50;15.43;;;10.90;;
45887;SDS011;31595;51.418;7.572;2024-01-15T05:46:17;20.80;;;11.77;;
45887;SDS011;31595;51.418;7.572;2024-01-15T05:48:44;16.52;;;10.88;;
45887;SDS011;31595;51.418;7.572;2024-01-15T05:51:12;16.98;;;11.50;;
45887;SDS011;31595;51.418;7.572;2024-01-15T05:53:39;18.77;;;11.18;;
45887;SDS011;31595;51.418;7.572;2024-01-15T05:56:08;18.05;;;11.73;;
45887;SDS011;31595;51.418;7.572;2024-01-15T05:58:36;20.90;;;11.98;;
45887;SDS011;31595;51.418;7.572;2024-01-15T06:01:03;19.25;;;11.70;;
45887;SDS011;31595;51.418;7.572;2024-01-15T06:03:30;18.08;;;11.70;;
45887;SDS011;31595;51.418;7.572;2024-01-15T06:05:56;16.15;;;11.13;;
45887;SDS011;31595;51.418;7.572;2024-01-15T06:08:25;15.35;;;10.00;;
45887;SDS011;31595;51.418;7.572;2024-01-15T06:10:53;20.40;;;11.68;;
45887;SDS011;31595;51.418;7.572;2024-01-15T06:13:20;19.85;;;10.40;;
45887;SDS011;31595;51.418;7.572;2024-01-15T06:15:46;22.08;;;10.40;;
45887;SDS011;31595;51.418;7.572;2024-01-15T06:18:13;17.00;;;10.48;;
45887;SDS011;31595;51.418;7.572;2024-01-15T06:20:40;13.77;;;9.57;;
45887;SDS011;31595;51.418;7.572;2024-01-15T06:23:07;17.05;;;10.35;;
45887;SDS011;31595;51.418;7.572;2024-01-15T06:25:35;14.82;;;10.18;;
45887;SDS011;31595;51.418;7.572;2024-01-15T06:28:02;15.95;;;10.20;;
45887;SDS011;31595;51.418;7.572;2024-01-15T06:30:30;17.33;;;9.57;;
45887;SDS011;31595;51.418;7.572;2024-01-15T06:32:57;14.25;;;9.40;;
45887;SDS011;31595;51.418;7.572;2024-01-15T06:35:23;15.93;;;9.70;;
45887;SDS011;31595;51.418;7.572;2024-01-15T06:37:50;15.82;;;10.77;;
45887;SDS011;31595;51.418;7.572;2024-01-15T06:40:17;17.92;;;11.48;;
45887;SDS011;31595;51.418;7.572;2024-01-15T06:42:45;18.52;;;10.10;;
45887;SDS011;31595;51.418;7.572;2024-01-15T06:45:12;15.30;;;10.20;;
45887;SDS011;31595;51.418;7.572;2024-01-15T06:47:39;15.77;;;9.15;;
45887;SDS011;31595;51.418;7.572;2024-01-15T06:50:07;15.02;;;10.05;;
45887;SDS011;31595;51.418;7.572;2024-01-15T06:52:34;16.98;;;10.13;;
45887;SDS011;31595;51.418;7.572;2024-01-15T06:55:01;17.13;;;9.82;;
45887;SDS011;31595;51.418;7.572;2024-01-15T06:57:28;18.60;;;10.00;;
45887;SDS011;31595;51.418;7.572;2024-01-15T06:59:58;15.20;;;10.45;;
45887;SDS011;31595;51.418;7.572;2024-01-15T07:02:24;14.98;;;10.13;;
45887;SDS011;31595;51.418;7.572;2024-01-15T07:04:52;17.13;;;10.30;;
45887;SDS011;31595;51.418;7.572;2024-01-15T07:07:19;15.32;;;10.40;;
45887;SDS011;31595;51.418;7.572;2024-01-15T07:09:45;14.48;;;10.07;;
45887;SDS011;31595;51.418;7.572;2024-01-15T07:12:12;16.65;;;10.88;;
45887;SDS011;31595;51.418;7.572;2024-01-15T07:14:39;16.13;;;10.43;;
45887;SDS011;31595;51.418;7.572;2024-01-15T07:17:07;17.90;;;10.68;;
45887;SDS011;31595;51.418;7.572;2024-01-15T07:19:34;17.58;;;10.40;;
45887;SDS011;31595;51.418;7.572;2024-01-15T07:22:01;17.80;;;10.30;;
45887;SDS011;31595;51.418;7.572;2024-01-15T07:24:28;15.13;;;9.90;;
45887;SDS011;31595;51.418;7.572;2024-01-15T07:26:54;17.45;;;11.32;;
45887;SDS011;31595;51.418;7.572;2024-01-15T07:29:21;14.27;;;10.20;;
45887;SDS011;31595;51.418;7.572;2024-01-15T07:31:49;15.32;;;10.63;;
45887;SDS011;31595;51.418;7.572;2024-01-15T07:34:17;18.25;;;11.00;;
45887;SDS011;31595;51.418;7.572;2024-01-15T07:36:44;12.45;;;9.65;;
45887;SDS011;31595;51.418;7.572;2024-01-15T07:39:11;14.20;;;10.10;;
45887;SDS011;31595;51.418;7.572;2024-01-15T07:41:38;13.63;;;10.82;;
45887;SDS011;31595;51.418;7.572;2024-01-15T07:44:05;12.88;;;9.80;;
45887;SDS011;31595;51.418;7.572;2024-01-15T07:46:31;14.93;;;11.05;;
45887;SDS011;31595;51.418;7.572;2024-01-15T07:48:58;14.98;;;11.80;;
45887;SDS011;31595;51.418;7.572;2024-01-15T07:51:26;19.30;;;12.23;;
45887;SDS011;31595;51.418;7.572;2024-01-15T07:53:53;16.58;;;11.30;;
45887;SDS011;31595;51.418;7.572;2024-01-15T07:56:20;17.48;;;12.43;;
45887;SDS011;31595;51.418;7.572;2024-01-15T07:58:47;14.02;;;11.30;;
45887;SDS011;31595;51.418;7.572;2024-01-15T08:01:14;14.00;;;11.23;;
45887;SDS011;31595;51.418;7.572;2024-01-15T08:03:41;15.20;;;11.27;;
45887;SDS011;31595;51.418;7.572;2024-01-15T08:06:08;17.13;;;11.30;;
45887;SDS011;31595;51.418;7.572;2024-01-15T08:08:36;13.07;;;11.65;;
45887;SDS011;31595;51.418;7.572;2024-01-15T08:11:03;14.85;;;11.65;;
45887;SDS011;31595;51.418;7.572;2024-01-15T08:13:30;14.48;;;11.23;;
45887;SDS011;31595;51.418;7.572;2024-01-15T08:15:57;14.93;;;11.18;;
45887;SDS011;31595;51.418;7.572;2024-01-15T08:18:24;12.90;;;9.98;;
45887;SDS011;31595;51.418;7.572;2024-01-15T08:20:51;12.32;;;10.20;;
45887;SDS011;31595;51.418;7.572;2024-01-15T08:23:17;12.52;;;10.05;;
45887;SDS011;31595;51.418;7.572;2024-01-15T08:25:46;12.93;;;9.85;;
45887;SDS011;31595;51.418;7.572;2024-01-15T08:28:13;14.15;;;11.45;;
45887;SDS011;31595;51.418;7.572;2024-01-15T08:30:40;14.45;;;10.63;;
45887;SDS011;31595;51.418;7.572;2024-01-15T08:33:07;15.95;;;12.38;;
45887;SDS011;31595;51.418;7.572;2024-01-15T08:35:34;13.75;;;11.52;;
45887;SDS011;31595;51.418;7.572;2024-01-15T08:38:00;13.00;;;10.38;;
45887;SDS011;31595;51.418;7.572;2024-01-15T08:40:28;12.65;;;8.90;;
45887;SDS011;31595;51.418;7.572;2024-01-15T08:42:56;13.02;;;9.57;;
45887;SDS011;31595;51.418;7.572;2024-01-15T08:45:23;13.55;;;9.57;;
45887;SDS011;31595;51.418;7.572;2024-01-15T08:47:50;13.55;;;9.60;;
45887;SDS011;31595;51.418;7.572;2024-01-15T08:50:17;10.35;;;8.18;;
45887;SDS011;31595;51.418;7.572;2024-01-15T08:52:43;12.82;;;7.55;;
45887;SDS011;31595;51.418;7.572;2024-01-15T08:55:11;9.80;;;7.32;;
45887;SDS011;31595;51.418;7.572;2024-01-15T08:57:39;9.88;;;6.45;;
45887;SDS011;31595;51.418;7.572;2024-01-15T09:00:07;8.88;;;6.70;;
45887;SDS011;31595;51.418;7.572;2024-01-15T09:02:34;10.03;;;7.57;;
45887;SDS011;31595;51.418;7.572;2024-01-15T09:05:01;9.82;;;6.63;;
45887;SDS011;31595;51.418;7.572;2024-01-15T09:07:29;9.68;;;6.53;;
45887;SDS011;31595;51.418;7.572;2024-01-15T09:09:56;8.27;;;6.57;;
45887;SDS011;31595;51.418;7.572;2024-01-15T09:12:24;7.97;;;7.07;;
45887;SDS011;31595;51.418;7.572;2024-01-15T09:14:51;6.78;;;5.57;;
45887;SDS011;31595;51.418;7.572;2024-01-15T09:17:20;12.23;;;6.93;;
45887;SDS011;31595;51.418;7.572;2024-01-15T09:19:48;7.90;;;6.32;;
45887;SDS011;31595;51.418;7.572;2024-01-15T09:22:15;9.38;;;6.85;;
45887;SDS011;31595;51.418;7.572;2024-01-15T09:24:43;7.70;;;6.43;;
45887;SDS011;31595;51.418;7.572;2024-01-15T09:27:10;9.02;;;6.47;;
45887;SDS011;31595;51.418;7.572;2024-01-15T09:29:37;8.05;;;7.07;;
45887;SDS011;31595;51.418;7.572;2024-01-15T09:32:05;9.63;;;7.18;;
45887;SDS011;31595;51.418;7.572;2024-01-15T09:34:34;7.30;;;6.55;;
45887;SDS011;31595;51.418;7.572;2024-01-15T09:37:01;8.60;;;6.70;;
45887;SDS011;31595;51.418;7.572;2024-01-15T09:39:28;9.32;;;7.50;;
45887;SDS011;31595;51.418;7.572;2024-01-15T09:41:56;8.73;;;7.57;;
45887;SDS011;31595;51.418;7.572;2024-01-15T09:44:23;9.32;;;7.40;;
45887;SDS011;31595;51.418;7.572;2024-01-15T09:46:49;8.55;;;6.72;;
45887;SDS011;31595;51.418;7.572;2024-01-15T09:49:18;10.30;;;7.20;;
45887;SDS011;31595;51.418;7.572;2024-01-15T09:51:46;9.30;;;7.28;;
45887;SDS011;31595;51.418;7.572;2024-01-15T09:54:13;8.73;;;7.82;;
45887;SDS011;31595;51.418;7.572;2024-01-15T09:56:42;14.07;;;7.68;;
45887;SDS011;31595;51.418;7.572;2024-01-15T09:59:11;11.53;;;7.30;;
45887;SDS011;31595;51.418;7.572;2024-01-15T10:01:38;8.82;;;7.20;;
45887;SDS011;31595;51.418;7.572;2024-01-15T10:04:06;9.90;;;8.18;;
45887;SDS011;31595;51.418;7.572;2024-01-15T10:06:32;9.85;;;7.35;;
45887;SDS011;31595;51.418;7.572;2024-01-15T10:09:01;9.40;;;7.72;;
45887;SDS011;31595;51.418;7.572;2024-01-15T10:11:28;11.50;;;7.75;;
45887;SDS011;31595;51.418;7.572;2024-01-15T10:13:56;8.38;;;7.05;;
45887;SDS011;31595;51.418;7.572;2024-01-15T10:16:23;7.93;;;6.97;;
45887;SDS011;31595;51.418;7.572;2024-01-15T10:18:50;7.43;;;5.72;;
45887;SDS011;31595;51.418;7.572;2024-01-15T10:21:17;7.28;;;6.22;;
45887;SDS011;31595;51.418;7.572;2024-01-15T10:23:44;7.60;;;5.85;;
45887;SDS011;31595;51.418;7.572;2024-01-15T10:26:12;6.90;;;5.38;;
45887;SDS011;31595;51.418;7.572;2024-01-15T10:28:40;9.65;;;5.95;;
45887;SDS011;31595;51.418;7.572;2024-01-15T10:31:08;6.80;;;5.50;;
45887;SDS011;31595;51.418;7.572;2024-01-15T10:33:35;6.30;;;5.63;;
45887;SDS011;31595;51.418;7.572;2024-01-15T10:36:02;6.93;;;5.03;;
45887;SDS011;31595;51.418;7.572;2024-01-15T10:38:29;6.75;;;4.95;;
45887;SDS011;31595;51.418;7.572;2024-01-15T10:40:56;5.72;;;4.90;;
45887;SDS011;31595;51.418;7.572;2024-01-15T10:43:24;5.00;;;4.20;;
45887;SDS011;31595;51.418;7.572;2024-01-15T10:45:51;5.38;;;4.13;;
45887;SDS011;31595;51.418;7.572;2024-01-15T10:48:18;5.47;;;3.90;;
45887;SDS011;31595;51.418;7.572;2024-01-15T10:50:46;5.40;;;4.20;;
45887;SDS011;31595;51.418;7.572;2024-01-15T10:53:14;6.13;;;4.63;;
45887;SDS011;31595;51.418;7.572;2024-01-15T10:55:41;5.47;;;4.63;;
45887;SDS011;31595;51.418;7.572;2024-01-15T10:58:08;5.55;;;4.82;;
45887;SDS011;31595;51.418;7.572;2024-01-15T11:00:37;6.38;;;4.38;;
45887;SDS011;31595;51.418;7.572;2024-01-15T11:03:04;6.95;;;5.20;;
45887;SDS011;31595;51.418;7.572;2024-01-15T11:05:33;5.93;;;5.32;;
45887;SDS011;31595;51.418;7.572;2024-01-15T11:08:00;7.43;;;5.75;;
45887;SDS011;31595;51.418;7.572;2024-01-15T11:10:43;6.38;;;5.32;;
45887;SDS011;31595;51.418;7.572;2024-01-15T11:13:13;6.15;;;5.35;;
45887;SDS011;31595;51.418;7.572;2024-01-15T11:15:57;9.97;;;5.10;;
45887;SDS011;31595;51.418;7.572;2024-01-15T11:18:26;8.30;;;6.00;;
45887;SDS011;31595;51.418;7.572;2024-01-15T11:23:44;7.47;;;5.00;;
45887;SDS011;31595;51.418;7.572;2024-01-15T11:26:26;7.18;;;5.13;;
45887;SDS011;31595;51.418;7.572;2024-01-15T11:28:54;7.50;;;5.22;;
45887;SDS011;31595;51.418;7.572;2024-01-15T11:31:26;8.80;;;5.03;;
45887;SDS011;31595;51.418;7.572;2024-01-15T11:33:53;8.18;;;5.22;;
45887;SDS011;31595;51.418;7.572;2024-01-15T11:36:21;8.43;;;5.25;;
45887;SDS011;31595;51.418;7.572;2024-01-15T11:38:48;5.80;;;3.90;;
45887;SDS011;31595;51.418;7.572;2024-01-15T11:41:15;6.47;;;4.72;;
45887;SDS011;31595;51.418;7.572;2024-01-15T11:43:42;10.25;;;5.93;;
45887;SDS011;31595;51.418;7.572;2024-01-15T11:46:10;8.23;;;5.28;;
45887;SDS011;31595;51.418;7.572;2024-01-15T11:48:42;7.20;;;4.73;;
45887;SDS011;31595;51.418;7.572;2024-01-15T11:51:10;6.68;;;4.93;;
45887;SDS011;31595;51.418;7.572;2024-01-15T11:53:40;9.38;;;5.18;;
45887;SDS011;31595;51.418;7.572;2024-01-15T11:56:11;7.30;;;4.68;;
45887;SDS011;31595;51.418;7.572;2024-01-15T11:58:38;8.35;;;5.25;;
45887;SDS011;31595;51.418;7.572;2024-01-15T12:01:05;9.45;;;5.85;;
45887;SDS011;31595;51.418;7.572;2024-01-15T12:03:32;8.68;;;5.32;;
45887;SDS011;31595;51.418;7.572;2024-01-15T12:06:01;8.13;;;4.80;;
45887;SDS011;31595;51.418;7.572;2024-01-15T12:08:28;7.15;;;5.20;;
45887;SDS011;31595;51.418;7.572;2024-01-15T12:10:55;8.77;;;5.47;;
45887;SDS011;31595;51.418;7.572;2024-01-15T12:13:22;7.63;;;4.60;;
45887;SDS011;31595;51.418;7.572;2024-01-15T12:15:49;9.10;;;4.90;;
45887;SDS011;31595;51.418;7.572;2024-01-15T12:18:16;5.80;;;4.07;;
45887;SDS011;31595;51.418;7.572;2024-01-15T12:20:44;6.10;;;4.28;;
45887;SDS011;31595;51.418;7.572;2024-01-15T12:23:13;6.88;;;4.20;;
45887;SDS011;31595;51.418;7.572;2024-01-15T12:25:40;4.63;;;3.35;;
45887;SDS011;31595;51.418;7.572;2024-01-15T12:28:07;6.90;;;4.20;;
45887;SDS011;31595;51.418;7.572;2024-01-15T12:30:34;6.93;;;3.90;;
45887;SDS011;31595;51.418;7.572;2024-01-15T12:33:03;6.47;;;4.22;;
45887;SDS011;31595;51.418;7.572;2024-01-15T12:35:30;8.32;;;4.43;;
45887;SDS011;31595;51.418;7.572;2024-01-15T12:37:57;5.47;;;4.35;;
45887;SDS011;31595;51.418;7.572;2024-01-15T12:40:27;7.38;;;4.28;;
45887;SDS011;31595;51.418;7.572;2024-01-15T12:42:54;7.32;;;4.95;;
45887;SDS011;31595;51.418;7.572;2024-01-15T12:45:21;7.97;;;4.82;;
45887;SDS011;31595;51.418;7.572;2024-01-15T12:47:48;9.90;;;5.07;;
45887;SDS011;31595;51.418;7.572;2024-01-15T12:50:16;6.22;;;4.97;;
45887;SDS011;31595;51.418;7.572;2024-01-15T12:52:43;6.93;;;5.22;;
45887;SDS011;31595;51.418;7.572;2024-01-15T12:55:10;6.95;;;5.90;;
45887;SDS011;31595;51.418;7.572;2024-01-15T12:57:39;8.05;;;5.95;;
45887;SDS011;31595;51.418;7.572;2024-01-15T13:00:06;8.95;;;5.93;;
45887;SDS011;31595;51.418;7.572;2024-01-15T13:02:37;8.40;;;5.50;;
45887;SDS011;31595;51.418;7.572;2024-01-15T13:05:04;9.02;;;6.10;;
45887;SDS011;31595;51.418;7.572;2024-01-15T13:07:32;8.63;;;5.30;;
45887;SDS011;31595;51.418;7.572;2024-01-15T13:09:59;9.55;;;5.93;;
45887;SDS011;31595;51.418;7.572;2024-01-15T13:12:26;9.30;;;5.60;;
45887;SDS011;31595;51.418;7.572;2024-01-15T13:14:54;10.13;;;5.30;;
45887;SDS011;31595;51.418;7.572;2024-01-15T13:17:21;7.22;;;4.38;;
45887;SDS011;31595;51.418;7.572;2024-01-15T13:19:48;6.07;;;4.78;;
45887;SDS011;31595;51.418;7.572;2024-01-15T13:22:15;7.00;;;5.25;;
45887;SDS011;31595;51.418;7.572;2024-01-15T13:24:42;6.75;;;4.72;;
45887;SDS011;31595;51.418;7.572;2024-01-15T13:27:09;10.40;;;4.82;;
45887;SDS011;31595;51.418;7.572;2024-01-15T13:29:36;9.73;;;5.10;;
45887;SDS011;31595;51.418;7.572;2024-01-15T13:32:04;6.00;;;4.40;;
45887;SDS011;31595;51.418;7.572;2024-01-15T13:34:31;5.68;;;4.15;;
45887;SDS011;31595;51.418;7.572;2024-01-15T13:36:58;6.35;;;4.13;;
45887;SDS011;31595;51.418;7.572;2024-01-15T13:39:25;6.30;;;4.30;;
45887;SDS011;31595;51.418;7.572;2024-01-15T13:41:51;5.10;;;4.00;;
45887;SDS011;31595;51.418;7.572;2024-01-15T13:44:18;6.20;;;4.30;;
45887;SDS011;31595;51.418;7.572;2024-01-15T13:46:46;6.70;;;4.28;;
45887;SDS011;31595;51.418;7.572;2024-01-15T13:49:14;7.38;;;4.45;;
45887;SDS011;31595;51.418;7.572;2024-01-15T13:51:40;6.93;;;4.22;;
45887;SDS011;31595;51.418;7.572;2024-01-15T13:54:07;6.57;;;4.63;;
45887;SDS011;31595;51.418;7.572;2024-01-15T13:56:35;8.88;;;5.28;;
45887;SDS011;31595;51.418;7.572;2024-01-15T13:59:01;11.10;;;6.47;;
45887;SDS011;31595;51.418;7.572;2024-01-15T14:01:29;9.57;;;5.88;;
45887;SDS011;31595;51.418;7.572;2024-01-15T14:03:56;6.40;;;5.70;;
45887;SDS011;31595;51.418;7.572;2024-01-15T14:06:25;7.65;;;5.80;;
45887;SDS011;31595;51.418;7.572;2024-01-15T14:08:52;10.55;;;6.55;;
45887;SDS011;31595;51.418;7.572;2024-01-15T14:11:18;5.97;;;5.22;;
45887;SDS011;31595;51.418;7.572;2024-01-15T14:13:45;9.80;;;5.65;;
45887;SDS011;31595;51.418;7.572;2024-01-15T14:16:12;9.10;;;5.32;;
45887;SDS011;31595;51.418;7.572;2024-01-15T14:18:39;7.95;;;5.68;;
45887;SDS011;31595;51.418;7.572;2024-01-15T14:21:06;6.90;;;5.63;;
45887;SDS011;31595;51.418;7.572;2024-01-15T14:23:34;9.43;;;6.00;;
45887;SDS011;31595;51.418;7.572;2024-01-15T14:26:01;9.85;;;5.88;;
45887;SDS011;31595;51.418;7.572;2024-01-15T14:28:29;7.85;;;5.95;;
45887;SDS011;31595;51.418;7.572;2024-01-15T14:30:56;8.02;;;5.68;;
45887;SDS011;31595;51.418;7.572;2024-01-15T14:33:24;7.43;;;6.13;;